Time;durP1;ratioP1;P1;durP2;ratioP2;P2;SDS_P1;SDS_P2;PMS_P1;PMS_P2;Temp;Humidity;BMP_temperature;BMP_pressure;BME280_temperature;BME280_humidity;BME280_pressure;Samples;Min_cycle;Max_cycle;Signal;HPM_P1;HPM_P2
2023/10/08 04:03:00;;;;;;;3.20;2.40;;;16.90;58.40;;;;;;5014431;28;20464;-76
2023/10/08 04:05:33;;;;;;;4.70;2.13;;;16.90;59.40;;;;;;5015506;28;20428;-76
2023/10/08 04:08:19;;;;;;;3.73;2.00;;;16.90;60.40;;;;;;5015153;28;20924;-76
2023/10/08 04:13:30;;;;;;;4.03;2.13;;;16.70;61.10;;;;;;5015961;28;20411;-76
2023/10/08 04:15:57;;;;;;;2.30;1.70;;;16.70;61.40;;;;;;5015195;28;20448;-76
2023/10/08 04:18:26;;;;;;;2.93;1.70;;;16.70;62.10;;;;;;5015253;28;20475;-76
2023/10/08 04:21:04;;;;;;;3.20;1.80;;;16.60;61.80;;;;;;5015137;28;20558;-76
2023/10/08 04:23:31;;;;;;;3.23;2.00;;;16.50;61.60;;;;;;5015149;28;20438;-76
2023/10/08 04:25:58;;;;;;;4.40;2.63;;;16.50;61.80;;;;;;5015313;28;20444;-76
2023/10/08 04:28:28;;;;;;;3.20;1.87;;;16.40;61.60;;;;;;5014930;28;20453;-76
2023/10/08 04:31:00;;;;;;;3.53;2.37;;;16.20;62.20;;;;;;5014823;28;21001;-76
2023/10/08 04:33:33;;;;;;;5.10;1.73;;;16.10;62.60;;;;;;5014997;28;20432;-76
2023/10/08 04:36:02;;;;;;;4.17;2.77;;;16.00;62.10;;;;;;5014892;28;20429;-77
2023/10/08 04:38:29;;;;;;;3.27;1.97;;;16.00;60.80;;;;;;5014835;28;20452;-76
2023/10/08 04:41:01;;;;;;;4.30;2.53;;;16.00;60.30;;;;;;5013552;28;20908;-76
2023/10/08 04:43:29;;;;;;;3.13;1.90;;;16.00;60.50;;;;;;5015621;28;20436;-76
2023/10/08 04:45:56;;;;;;;3.37;2.17;;;16.00;60.80;;;;;;5014746;28;20444;-76
2023/10/08 04:48:24;;;;;;;3.83;2.00;;;16.10;60.90;;;;;;5014721;28;20879;-76
2023/10/08 04:50:58;;;;;;;4.87;1.93;;;16.10;60.70;;;;;;5014624;28;20530;-77
2023/10/08 04:53:31;;;;;;;3.17;1.80;;;16.10;61.20;;;;;;5014616;28;20854;-76
2023/10/08 04:56:02;;;;;;;4.47;2.53;;;16.10;60.40;;;;;;5014668;28;20428;-76
2023/10/08 04:58:33;;;;;;;3.27;2.20;;;16.10;59.90;;;;;;5014507;28;20479;-76
2023/10/08 05:01:17;;;;;;;7.17;2.10;;;16.20;60.30;;;;;;5014208;28;20506;-76
2023/10/08 05:03:55;;;;;;;3.53;2.30;;;16.30;59.90;;;;;;5014347;28;20449;-76
2023/10/08 05:06:39;;;;;;;6.50;2.00;;;16.30;60.10;;;;;;5014439;28;20432;-77
2023/10/08 05:09:12;;;;;;;4.53;1.87;;;16.30;60.30;;;;;;5014331;28;20479;-76
2023/10/08 05:12:08;;;;;;;2.83;1.80;;;16.40;60.20;;;;;;5014195;28;20555;-76
2023/10/08 05:14:38;;;;;;;4.53;2.27;;;16.50;60.30;;;;;;5013815;28;20454;-77
2023/10/08 05:17:09;;;;;;;2.93;2.20;;;16.60;60.00;;;;;;5014142;28;20478;-76
2023/10/08 05:19:56;;;;;;;3.20;2.00;;;16.60;60.40;;;;;;5014263;28;20436;-76
2023/10/08 05:22:44;;;;;;;3.03;1.97;;;16.50;60.40;;;;;;5014046;28;20464;-76
2023/10/08 05:25:24;;;;;;;6.20;2.50;;;16.60;60.30;;;;;;5014082;28;20424;-76
2023/10/08 05:28:09;;;;;;;4.43;2.20;;;16.50;59.80;;;;;;5014028;28;20429;-76
2023/10/08 05:30:38;;;;;;;4.40;2.47;;;16.40;59.90;;;;;;5013957;28;20451;-76
2023/10/08 05:33:25;;;;;;;3.40;2.20;;;16.50;59.90;;;;;;5013904;28;20539;-76
2023/10/08 05:35:56;;;;;;;3.60;2.30;;;16.50;59.60;;;;;;5013938;28;20428;-76
2023/10/08 05:38:38;;;;;;;2.50;1.80;;;16.50;59.40;;;;;;5013756;28;20552;-76
2023/10/08 05:41:05;;;;;;;3.50;2.00;;;16.50;59.50;;;;;;5013751;28;20474;-76
2023/10/08 05:43:55;;;;;;;3.53;2.13;;;16.50;59.50;;;;;;5013732;28;20452;-77
2023/10/08 05:46:46;;;;;;;3.00;2.23;;;16.50;59.60;;;;;;5013424;28;20812;-76
2023/10/08 05:49:26;;;;;;;3.13;2.33;;;16.50;59.20;;;;;;5014533;28;20430;-76
2023/10/08 05:54:57;;;;;;;5.37;1.87;;;16.50;59.30;;;;;;5013432;28;20412;-77
2023/10/08 05:57:38;;;;;;;4.43;2.20;;;16.60;59.30;;;;;;5013569;28;20468;-76
2023/10/08 06:00:30;;;;;;;3.50;2.10;;;16.60;59.40;;;;;;5013629;28;20450;-76
2023/10/08 06:03:09;;;;;;;3.90;2.77;;;16.70;59.50;;;;;;5013527;28;20424;-77
2023/10/08 06:05:47;;;;;;;3.83;2.40;;;16.80;60.50;;;;;;5013252;28;20905;-76
2023/10/08 06:08:14;;;;;;;4.30;2.43;;;16.90;61.50;;;;;;5013555;28;20421;-77
2023/10/08 06:10:44;;;;;;;3.60;2.20;;;16.80;62.10;;;;;;5013324;28;20455;-77
2023/10/08 06:13:13;;;;;;;5.30;2.40;;;16.80;61.50;;;;;;5013412;28;20543;-76
2023/10/08 06:15:48;;;;;;;3.33;2.67;;;16.80;59.80;;;;;;5013423;28;20514;-77
2023/10/08 06:18:14;;;;;;;3.50;2.37;;;16.80;59.70;;;;;;5013395;28;20547;-76
2023/10/08 06:20:43;;;;;;;2.80;2.10;;;16.90;59.30;;;;;;5012960;28;20937;-77
2023/10/08 06:23:12;;;;;;;3.17;1.97;;;17.20;58.80;;;;;;5013024;28;20898;-76
2023/10/08 06:25:45;;;;;;;3.77;2.37;;;17.40;57.30;;;;;;5012974;28;20843;-76
2023/10/08 06:28:15;;;;;;;3.20;1.80;;;17.60;57.30;;;;;;5013353;28;20428;-77
2023/10/08 06:30:42;;;;;;;3.53;2.00;;;17.70;56.80;;;;;;5013190;28;20531;-77
2023/10/08 06:33:10;;;;;;;3.43;2.10;;;17.70;57.10;;;;;;5012960;28;20844;-76
2023/10/08 06:35:36;;;;;;;3.70;2.30;;;17.60;57.50;;;;;;5013273;28;20448;-76
2023/10/08 06:38:07;;;;;;;3.40;2.37;;;17.40;57.20;;;;;;5013183;28;20487;-76
2023/10/08 06:40:43;;;;;;;2.63;1.97;;;17.10;58.20;;;;;;5012829;28;20879;-77
2023/10/08 06:43:14;;;;;;;3.70;2.07;;;17.00;58.70;;;;;;5013249;28;20424;-76
2023/10/08 06:45:44;;;;;;;2.30;1.60;;;16.80;59.00;;;;;;5013186;28;20429;-77
2023/10/08 06:48:17;;;;;;;4.10;1.93;;;16.80;59.50;;;;;;5013230;28;20507;-76
2023/10/08 06:50:44;;;;;;;2.93;2.23;;;16.80;59.30;;;;;;5013160;28;20479;-76
2023/10/08 06:53:13;;;;;;;2.90;1.90;;;16.80;59.50;;;;;;5012797;28;20455;-77
2023/10/08 06:55:41;;;;;;;3.83;2.33;;;16.70;59.90;;;;;;5013040;28;20455;-78
2023/10/08 06:58:09;;;;;;;3.33;2.00;;;16.80;59.90;;;;;;5012900;28;20488;-77
2023/10/08 07:00:40;;;;;;;3.47;2.17;;;16.90;60.10;;;;;;5012861;28;20484;-77
2023/10/08 07:03:10;;;;;;;4.87;2.03;;;17.00;59.40;;;;;;5013539;28;20424;-77
2023/10/08 07:05:40;;;;;;;3.20;1.93;;;17.20;59.30;;;;;;5015703;28;20941;-77
2023/10/08 07:08:08;;;;;;;3.07;1.87;;;18.10;57.50;;;;;;5016534;28;20439;-78
2023/10/08 07:10:35;;;;;;;3.70;1.70;;;18.50;56.40;;;;;;5016489;28;20449;-79
2023/10/08 07:13:03;;;;;;;2.93;1.90;;;18.40;56.30;;;;;;5016477;28;20448;-77
2023/10/08 07:15:30;;;;;;;2.97;2.00;;;19.10;55.60;;;;;;5016117;28;20849;-77
2023/10/08 07:18:07;;;;;;;2.50;1.80;;;20.00;53.90;;;;;;5016383;28;20575;-78
2023/10/08 07:20:39;;;;;;;2.97;1.80;;;20.40;53.10;;;;;;5016296;28;20432;-77
2023/10/08 07:23:18;;;;;;;3.00;1.93;;;20.40;53.10;;;;;;5016358;28;20433;-77
2023/10/08 07:25:53;;;;;;;3.93;2.50;;;21.00;52.30;;;;;;5016251;28;20425;-77
2023/10/08 07:28:20;;;;;;;3.00;2.33;;;22.00;50.50;;;;;;5016475;28;20419;-78
2023/10/08 07:30:49;;;;;;;3.73;2.10;;;22.60;48.90;;;;;;5016281;28;20880;-78
2023/10/08 07:33:18;;;;;;;3.07;1.93;;;22.80;48.40;;;;;;5016390;28;20531;-78
2023/10/08 07:35:54;;;;;;;2.87;2.07;;;22.40;50.80;;;;;;5016852;28;20467;-79
2023/10/08 07:38:22;;;;;;;4.27;1.73;;;22.20;50.60;;;;;;5017154;28;20468;-80
2023/10/08 07:40:49;;;;;;;3.80;2.33;;;21.90;51.70;;;;;;5016351;28;20503;-78
2023/10/08 07:43:20;;;;;;;2.90;2.17;;;21.50;51.90;;;;;;5016100;28;20444;-77
2023/10/08 07:45:47;;;;;;;2.77;1.90;;;21.20;52.80;;;;;;5015983;28;20584;-78
2023/10/08 07:48:15;;;;;;;3.10;1.67;;;20.90;53.80;;;;;;5015635;28;20797;-77
2023/10/08 07:50:44;;;;;;;3.33;2.27;;;20.70;54.90;;;;;;5016317;28;20531;-78
2023/10/08 07:53:17;;;;;;;3.90;1.90;;;20.40;54.80;;;;;;5015928;28;20467;-78
2023/10/08 07:55:48;;;;;;;3.57;1.90;;;20.20;55.40;;;;;;5016060;28;20472;-77
2023/10/08 07:58:16;;;;;;;3.83;2.40;;;20.10;55.70;;;;;;5015499;28;20995;-77
2023/10/08 08:00:51;;;;;;;3.10;1.83;;;20.10;56.30;;;;;;5015526;28;20476;-78
2023/10/08 08:03:19;;;;;;;3.17;1.90;;;20.10;56.50;;;;;;5015410;28;20424;-79
2023/10/08 08:05:46;;;;;;;3.83;1.97;;;20.00;56.70;;;;;;5015833;28;20791;-78
2023/10/08 08:08:17;;;;;;;4.63;1.83;;;20.10;56.60;;;;;;5015962;28;20444;-78
2023/10/08 08:10:45;;;;;;;5.13;2.67;;;20.00;56.90;;;;;;5015512;28;20471;-77
2023/10/08 08:13:13;;;;;;;4.00;2.03;;;19.90;57.90;;;;;;5015637;28;20494;-78
2023/10/08 08:15:43;;;;;;;3.33;1.97;;;20.00;57.70;;;;;;5016084;28;20953;-79
2023/10/08 08:18:22;;;;;;;6.00;2.20;;;20.00;58.30;;;;;;5016568;28;20575;-78
2023/10/08 08:20:49;;;;;;;3.10;1.70;;;19.80;57.90;;;;;;5015979;28;20551;-79
2023/10/08 08:23:17;;;;;;;3.30;1.80;;;19.70;58.90;;;;;;5015576;28;20440;-77
2023/10/08 08:26:05;;;;;;;4.00;2.27;;;19.50;58.30;;;;;;5014860;28;20444;-77
2023/10/08 08:28:32;;;;;;;4.70;2.40;;;19.40;58.40;;;;;;5015397;28;20453;-77
2023/10/08 08:31:04;;;;;;;3.63;2.13;;;19.30;58.50;;;;;;5015113;28;20523;-78
2023/10/08 08:33:52;;;;;;;3.03;1.30;;;19.50;59.60;;;;;;5015089;28;20429;-77
2023/10/08 08:36:18;;;;;;;4.53;2.30;;;19.80;59.10;;;;;;5014591;28;20925;-76
2023/10/08 08:38:45;;;;;;;4.00;2.13;;;20.10;57.80;;;;;;5014864;28;20476;-76
2023/10/08 08:41:12;;;;;;;3.70;2.00;;;20.40;58.40;;;;;;5014945;28;20460;-77
2023/10/08 08:43:44;;;;;;;4.10;1.80;;;20.80;56.40;;;;;;5015199;28;20444;-78
2023/10/08 08:46:12;;;;;;;4.20;2.10;;;21.10;55.60;;;;;;5015895;28;20432;-78
2023/10/08 08:48:40;;;;;;;4.00;1.97;;;21.40;55.10;;;;;;5015110;28;20463;-78
2023/10/08 08:51:09;;;;;;;3.60;2.00;;;21.50;55.10;;;;;;5014994;28;20471;-78
2023/10/08 08:53:36;;;;;;;4.00;2.33;;;21.80;54.80;;;;;;5014943;28;20448;-78
2023/10/08 08:56:09;;;;;;;2.93;2.00;;;22.00;55.00;;;;;;5015040;28;20475;-77
2023/10/08 08:58:36;;;;;;;3.30;2.23;;;22.10;55.70;;;;;;5014168;28;20843;-76
2023/10/08 09:01:06;;;;;;;3.37;2.27;;;22.30;55.10;;;;;;5014216;28;20476;-77
2023/10/08 09:03:34;;;;;;;4.07;2.10;;;22.40;54.50;;;;;;5014552;28;20839;-77
2023/10/08 09:06:01;;;;;;;4.67;2.00;;;22.40;53.90;;;;;;5014831;28;20444;-78
2023/10/08 09:08:34;;;;;;;4.10;2.50;;;22.50;53.80;;;;;;5014212;28;20934;-78
2023/10/08 09:11:04;;;;;;;3.67;2.27;;;22.60;54.70;;;;;;5014837;28;20464;-77
2023/10/08 09:13:33;;;;;;;3.00;2.13;;;22.40;54.60;;;;;;5014621;28;20448;-78
2023/10/08 09:16:08;;;;;;;3.67;1.90;;;22.40;55.20;;;;;;5014958;28;20444;-77
2023/10/08 09:18:35;;;;;;;2.67;1.93;;;22.30;54.30;;;;;;5014199;28;20466;-77
2023/10/08 09:21:12;;;;;;;5.13;2.43;;;22.40;54.40;;;;;;5014254;28;20490;-80
2023/10/08 09:23:43;;;;;;;4.60;2.23;;;22.50;54.60;;;;;;5015109;28;20448;-79
2023/10/08 09:26:09;;;;;;;3.30;2.30;;;22.50;54.10;;;;;;5014910;28;20902;-79
2023/10/08 09:28:39;;;;;;;3.40;2.00;;;22.60;54.20;;;;;;5014627;28;20437;-79
2023/10/08 09:31:06;;;;;;;3.73;1.90;;;22.70;54.50;;;;;;5015225;28;20464;-79
2023/10/08 09:33:33;;;;;;;3.03;2.00;;;22.70;53.00;;;;;;5014843;28;20822;-79
2023/10/08 09:36:02;;;;;;;4.13;2.03;;;22.70;53.50;;;;;;5014913;28;20445;-79
2023/10/08 09:38:31;;;;;;;4.73;2.27;;;22.50;53.30;;;;;;5014571;28;20491;-78
2023/10/08 09:40:58;;;;;;;4.53;2.27;;;22.50;53.70;;;;;;5016009;28;20480;-80
2023/10/08 09:43:25;;;;;;;3.37;1.83;;;22.50;53.50;;;;;;5014763;28;20452;-80
2023/10/08 09:46:01;;;;;;;5.30;2.50;;;22.60;52.70;;;;;;5014172;28;20818;-78
2023/10/08 09:48:30;;;;;;;5.67;2.40;;;22.80;52.60;;;;;;5014152;28;20478;-78
2023/10/08 09:51:00;;;;;;;6.60;2.33;;;22.70;52.30;;;;;;5014170;28;20546;-78
2023/10/08 09:53:39;;;;;;;4.70;2.30;;;22.70;53.10;;;;;;5013750;28;20455;-80
2023/10/08 09:56:15;;;;;;;3.30;1.90;;;22.80;54.50;;;;;;5014081;28;20482;-79
2023/10/08 09:58:43;;;;;;;3.00;2.00;;;22.80;55.30;;;;;;5013949;28;20460;-79
2023/10/08 10:01:11;;;;;;;3.80;1.83;;;22.70;55.20;;;;;;5013771;28;20483;-79
2023/10/08 10:03:41;;;;;;;3.37;1.90;;;22.70;55.50;;;;;;5014214;28;20479;-79
2023/10/08 10:06:14;;;;;;;2.90;2.10;;;22.60;53.10;;;;;;5013967;28;20454;-79
2023/10/08 10:08:42;;;;;;;3.27;2.10;;;22.50;54.90;;;;;;5013937;28;20429;-79
2023/10/08 10:11:10;;;;;;;2.83;2.10;;;22.50;55.40;;;;;;5013623;28;20951;-79
2023/10/08 10:13:40;;;;;;;2.60;1.80;;;22.50;56.30;;;;;;5032792;23;21086;-78
2023/10/08 10:16:08;;;;;;;3.33;2.00;;;22.50;56.70;;;;;;5034004;28;20435;-75
2023/10/08 10:18:36;;;;;;;3.80;2.47;;;22.40;57.70;;;;;;5033721;28;21034;-75
2023/10/08 10:21:28;;;;;;;3.70;2.70;;;22.50;56.40;;;;;;5033397;28;20877;-76
2023/10/08 10:23:56;;;;;;;4.50;2.60;;;22.50;56.20;;;;;;5034438;28;20502;-75
2023/10/08 10:26:25;;;;;;;3.13;1.97;;;22.70;55.10;;;;;;5033663;28;20903;-75
2023/10/08 10:29:19;;;;;;;3.97;2.10;;;22.80;54.10;;;;;;5033653;28;20522;-74
2023/10/08 10:31:47;;;;;;;3.23;2.17;;;23.00;54.90;;;;;;5019456;28;20456;-74
2023/10/08 10:34:16;;;;;;;4.00;2.10;;;23.10;55.40;;;;;;5033348;28;20471;-73
2023/10/08 10:36:48;;;;;;;3.70;2.63;;;23.10;55.40;;;;;;5033466;28;20485;-76
2023/10/08 10:39:16;;;;;;;4.87;2.60;;;23.10;54.30;;;;;;5034113;28;20474;-73
2023/10/08 10:41:44;;;;;;;3.93;2.17;;;23.30;54.00;;;;;;5037165;28;20452;-74
2023/10/08 10:44:13;;;;;;;3.80;1.83;;;23.50;54.20;;;;;;5036835;28;20460;-73
2023/10/08 10:46:42;;;;;;;3.47;2.27;;;23.60;53.80;;;;;;5037046;28;20455;-74
2023/10/08 10:49:18;;;;;;;5.40;2.07;;;23.80;54.00;;;;;;5036643;28;20990;-74
2023/10/08 10:51:48;;;;;;;3.20;2.00;;;23.80;54.10;;;;;;5037070;28;20438;-72
2023/10/08 10:54:20;;;;;;;3.80;2.30;;;23.80;55.30;;;;;;5036934;28;20466;-74
2023/10/08 10:56:47;;;;;;;2.70;1.97;;;23.70;54.30;;;;;;5037053;28;20423;-73
2023/10/08 10:59:18;;;;;;;3.10;2.47;;;23.70;56.30;;;;;;5036866;28;20585;-74
2023/10/08 11:01:52;;;;;;;3.93;2.30;;;23.90;54.80;;;;;;5036803;28;20442;-76
2023/10/08 11:04:19;;;;;;;4.50;2.23;;;24.20;54.10;;;;;;5037173;28;20470;-76
2023/10/08 11:06:51;;;;;;;5.17;2.33;;;24.10;53.40;;;;;;5037489;28;20471;-77
2023/10/08 11:09:35;;;;;;;3.27;2.37;;;24.30;52.40;;;;;;5037149;28;20801;-77
2023/10/08 11:12:09;;;;;;;3.83;2.50;;;24.50;51.90;;;;;;5037400;28;20428;-76
2023/10/08 11:14:41;;;;;;;3.73;2.37;;;24.50;52.60;;;;;;5036752;28;20478;-77
2023/10/08 11:17:11;;;;;;;4.97;2.60;;;24.50;54.10;;;;;;5036993;28;20471;-77
2023/10/08 11:19:38;;;;;;;7.43;3.40;;;24.50;54.00;;;;;;5037222;28;20502;-75
2023/10/08 11:22:06;;;;;;;4.17;2.87;;;24.40;53.00;;;;;;5037036;28;20489;-76
2023/10/08 11:24:34;;;;;;;4.07;2.10;;;24.40;54.00;;;;;;5037480;28;20459;-75
2023/10/08 11:27:15;;;;;;;4.27;2.60;;;24.40;52.70;;;;;;5035997;28;20482;-75
2023/10/08 11:29:43;;;;;;;5.93;3.20;;;24.60;52.60;;;;;;5036080;28;20431;-72
2023/10/08 11:32:12;;;;;;;4.47;2.67;;;24.70;52.80;;;;;;5036061;28;20473;-73
2023/10/08 11:34:39;;;;;;;6.17;2.67;;;24.80;54.10;;;;;;5035948;28;20464;-71
2023/10/08 11:37:19;;;;;;;4.27;2.30;;;24.90;52.60;;;;;;5036010;28;20570;-75
2023/10/08 11:39:46;;;;;;;4.57;2.53;;;25.00;52.00;;;;;;5035807;28;20467;-75
2023/10/08 11:42:39;;;;;;;3.80;2.20;;;25.10;52.20;;;;;;5035753;28;20542;-74
2023/10/08 11:45:18;;;;;;;4.00;3.00;;;25.10;52.90;;;;;;5035632;28;20537;-75
2023/10/08 11:47:45;;;;;;;3.27;2.30;;;24.90;52.80;;;;;;5036240;28;20444;-75
2023/10/08 11:50:17;;;;;;;3.63;2.80;;;24.80;53.10;;;;;;5034943;28;20447;-75
2023/10/08 11:52:45;;;;;;;5.47;2.50;;;24.50;52.10;;;;;;5035377;28;20438;-74
2023/10/08 11:55:18;;;;;;;2.33;1.70;;;24.20;53.10;;;;;;5035887;28;20459;-74
2023/10/08 11:57:46;;;;;;;4.10;2.03;;;24.10;53.50;;;;;;5035799;28;20427;-72
2023/10/08 12:00:18;;;;;;;4.47;2.37;;;24.00;54.10;;;;;;5035686;28;20483;-72
2023/10/08 12:02:45;;;;;;;4.10;2.30;;;24.10;55.40;;;;;;5036124;28;20431;-72
2023/10/08 12:05:18;;;;;;;5.63;2.20;;;24.30;55.00;;;;;;5036089;28;20467;-71
2023/10/08 12:07:47;;;;;;;4.90;2.37;;;24.40;53.90;;;;;;5041252;28;20805;-71
2023/10/08 12:10:16;;;;;;;4.70;2.33;;;24.40;53.80;;;;;;5042785;28;20446;-72
2023/10/08 12:12:45;;;;;;;3.30;2.20;;;24.60;54.50;;;;;;5035206;28;20462;-72
2023/10/08 12:15:19;;;;;;;2.90;2.27;;;24.80;53.80;;;;;;5034699;28;20475;-72
2023/10/08 12:18:01;;;;;;;4.40;2.57;;;24.70;52.70;;;;;;5035068;28;20453;-73
2023/10/08 12:20:34;;;;;;;4.17;2.70;;;25.00;54.10;;;;;;5034980;28;20474;-72
2023/10/08 12:23:02;;;;;;;4.20;2.67;;;25.30;52.70;;;;;;5034926;28;20424;-73
2023/10/08 12:25:32;;;;;;;4.70;2.47;;;25.30;52.20;;;;;;5034869;28;20447;-73
2023/10/08 12:28:01;;;;;;;3.83;2.37;;;25.40;53.10;;;;;;5034843;28;20513;-74
2023/10/08 12:30:31;;;;;;;4.07;2.33;;;25.80;52.40;;;;;;5035137;28;20525;-73
2023/10/08 12:32:58;;;;;;;5.03;2.80;;;26.10;50.10;;;;;;5034403;28;20945;-74
2023/10/08 12:35:25;;;;;;;5.63;2.40;;;26.10;50.10;;;;;;5034760;28;20464;-74
2023/10/08 12:37:53;;;;;;;5.70;2.83;;;26.30;50.30;;;;;;5034343;28;20951;-73
2023/10/08 12:40:23;;;;;;;3.90;2.63;;;26.80;49.10;;;;;;5034938;28;20897;-73
2023/10/08 12:42:51;;;;;;;3.97;2.60;;;27.00;48.60;;;;;;5034625;28;20443;-73
2023/10/08 12:45:20;;;;;;;5.50;2.87;;;27.30;49.00;;;;;;5034715;28;20463;-74
2023/10/08 12:47:49;;;;;;;5.23;2.70;;;27.40;47.80;;;;;;5034557;28;20443;-74
2023/10/08 12:50:16;;;;;;;4.97;2.87;;;27.60;47.50;;;;;;5038216;28;20474;-76
2023/10/08 12:52:52;;;;;;;4.30;2.67;;;27.80;47.20;;;;;;5037152;28;20455;-75
2023/10/08 12:55:21;;;;;;;4.53;2.60;;;28.00;46.90;;;;;;5039893;28;20467;-75
2023/10/08 12:57:55;;;;;;;4.90;2.50;;;28.30;47.10;;;;;;5039860;28;20438;-75
2023/10/08 13:00:24;;;;;;;3.20;2.40;;;28.30;46.50;;;;;;5035825;28;20498;-76
2023/10/08 13:02:53;;;;;;;5.23;3.00;;;28.30;46.70;;;;;;5033685;28;20466;-75
2023/10/08 13:05:27;;;;;;;5.60;3.27;;;28.60;45.50;;;;;;5034504;28;20459;-75
2023/10/08 13:07:55;;;;;;;5.27;2.93;;;29.00;46.30;;;;;;5034990;28;20440;-75
2023/10/08 13:10:22;;;;;;;5.43;3.00;;;29.20;40.50;;;;;;5035661;28;20472;-76
2023/10/08 13:12:50;;;;;;;7.30;3.40;;;29.30;39.20;;;;;;5035464;28;20994;-71
2023/10/08 13:15:17;;;;;;;4.57;2.83;;;29.30;41.10;;;;;;5040751;28;20471;-73
2023/10/08 13:17:45;;;;;;;6.17;3.33;;;29.60;39.80;;;;;;5042742;28;20463;-73
2023/10/08 13:20:34;;;;;;;4.57;2.80;;;30.10;41.40;;;;;;5042709;28;20471;-74
2023/10/08 13:23:01;;;;;;;6.07;3.13;;;30.50;40.40;;;;;;5043429;28;20515;-74
2023/10/08 13:25:27;;;;;;;4.87;3.33;;;30.80;37.70;;;;;;5040654;28;20458;-74
2023/10/08 13:27:55;;;;;;;7.73;2.97;;;31.10;39.10;;;;;;5039122;28;20458;-74
2023/10/08 13:30:23;;;;;;;5.07;2.67;;;31.50;36.90;;;;;;5040226;28;20443;-74
2023/10/08 13:32:51;;;;;;;4.90;2.73;;;32.10;37.70;;;;;;5037374;28;20974;-75
2023/10/08 13:35:18;;;;;;;4.20;2.80;;;32.80;36.30;;;;;;5034274;28;20558;-76
2023/10/08 13:37:46;;;;;;;10.73;3.57;;;33.50;34.60;;;;;;5034440;28;20446;-77
2023/10/08 13:40:15;;;;;;;4.20;2.57;;;34.40;35.70;;;;;;5033408;28;21004;-77
2023/10/08 13:42:42;;;;;;;4.50;3.10;;;35.90;33.80;;;;;;5034229;28;20442;-78
2023/10/08 13:45:26;;;;;;;3.73;2.73;;;37.40;31.30;;;;;;5033691;28;20996;-76
2023/10/08 13:47:53;;;;;;;6.70;3.50;;;39.00;29.90;;;;;;5034207;28;20542;-76
2023/10/08 13:50:21;;;;;;;5.57;2.85;;;40.60;28.30;;;;;;5033645;28;20446;-76
2023/10/08 13:52:48;;;;;;;3.75;2.53;;;41.50;26.30;;;;;;5044457;28;20271;-76
2023/10/08 13:55:16;;;;;;;5.68;2.90;;;42.30;26.20;;;;;;5043221;28;20224;-75
2023/10/08 13:57:44;;;;;;;5.88;2.72;;;42.90;26.50;;;;;;5033153;28;20669;-76
2023/10/08 14:00:16;;;;;;;4.25;2.78;;;43.70;25.20;;;;;;5033975;28;20259;-76
2023/10/08 14:02:44;;;;;;;4.50;2.72;;;44.30;24.90;;;;;;5033639;28;20195;-76
2023/10/08 14:05:15;;;;;;;6.72;2.65;;;44.80;24.20;;;;;;5033381;28;20266;-76
2023/10/08 14:07:44;;;;;;;4.45;2.63;;;45.00;24.70;;;;;;5033270;28;20595;-76
2023/10/08 14:10:18;;;;;;;5.57;2.70;;;45.20;24.30;;;;;;5033322;28;20204;-76
2023/10/08 14:12:48;;;;;;;4.70;2.42;;;45.60;24.30;;;;;;5033936;28;20223;-77
2023/10/08 14:15:17;;;;;;;3.95;2.88;;;46.10;24.50;;;;;;5039353;28;20320;-78
2023/10/08 14:17:48;;;;;;;4.28;2.83;;;46.30;24.00;;;;;;5039949;28;20249;-75
2023/10/08 14:20:21;;;;;;;6.43;2.90;;;46.40;24.20;;;;;;5039389;28;20681;-75
2023/10/08 14:22:52;;;;;;;4.70;2.53;;;46.00;24.10;;;;;;5039750;28;20198;-75
2023/10/08 14:25:24;;;;;;;5.47;3.03;;;46.00;24.10;;;;;;5039642;28;20223;-75
2023/10/08 14:27:52;;;;;;;4.20;2.75;;;45.60;24.20;;;;;;5039647;28;20203;-75
2023/10/08 14:30:23;;;;;;;5.85;3.30;;;45.60;24.30;;;;;;5039580;28;20242;-75
2023/10/08 14:32:51;;;;;;;4.20;3.40;;;44.70;24.80;;;;;;5040233;28;20246;-75
2023/10/08 14:43:34;;;;;;;7.43;3.03;;;43.00;26.00;;;;;;5039493;28;20226;-74
2023/10/08 14:46:04;;;;;;;4.80;2.67;;;41.80;26.70;;;;;;5039089;28;20756;-74
2023/10/08 14:48:34;;;;;;;5.38;2.85;;;41.60;27.10;;;;;;5039377;28;20212;-75
2023/10/08 14:51:02;;;;;;;6.15;2.95;;;41.60;27.40;;;;;;5039384;28;20188;-74
2023/10/08 14:53:29;;;;;;;3.85;2.50;;;41.40;27.20;;;;;;5039665;28;20311;-74
2023/10/08 14:55:57;;;;;;;4.73;3.03;;;40.50;27.40;;;;;;5039383;28;20212;-74
2023/10/08 14:58:25;;;;;;;3.80;2.63;;;39.00;29.00;;;;;;5039296;28;20445;-74
2023/10/08 15:00:54;;;;;;;4.90;2.97;;;37.50;30.30;;;;;;5039183;28;20478;-74
2023/10/08 15:03:22;;;;;;;3.73;2.97;;;35.70;32.40;;;;;;5039207;28;20471;-74
2023/10/08 15:05:49;;;;;;;3.73;3.00;;;34.50;33.80;;;;;;5039285;28;20447;-74
2023/10/08 15:08:18;;;;;;;7.10;3.23;;;33.90;34.50;;;;;;5039207;28;20497;-74
2023/10/08 15:10:47;;;;;;;4.50;2.63;;;33.60;34.50;;;;;;5039174;28;20478;-74
2023/10/08 15:13:13;;;;;;;5.20;3.27;;;33.30;34.90;;;;;;5039066;28;20471;-74
2023/10/08 15:15:42;;;;;;;5.07;2.60;;;32.60;35.50;;;;;;5039277;28;20435;-74
2023/10/08 15:18:11;;;;;;;3.63;2.33;;;31.90;36.50;;;;;;5039098;28;20443;-74
2023/10/08 15:20:40;;;;;;;3.50;2.50;;;31.40;37.60;;;;;;5039042;28;20486;-74
2023/10/08 15:23:11;;;;;;;3.90;2.80;;;30.70;38.70;;;;;;5038987;28;20505;-74
2023/10/08 15:25:38;;;;;;;5.77;3.70;;;30.00;39.40;;;;;;5036239;28;20522;-73
2023/10/08 15:28:05;;;;;;;7.60;3.30;;;29.50;40.50;;;;;;5035924;28;20493;-73
2023/10/08 15:30:32;;;;;;;4.87;2.80;;;29.20;40.70;;;;;;5035815;28;20443;-74
2023/10/08 15:32:59;;;;;;;5.43;2.67;;;28.70;41.70;;;;;;5035733;28;20451;-74
2023/10/08 15:35:25;;;;;;;6.07;3.00;;;28.40;42.10;;;;;;5035824;28;20455;-74
2023/10/08 15:37:54;;;;;;;5.00;2.63;;;28.20;43.40;;;;;;5035791;28;20446;-73
2023/10/08 15:40:22;;;;;;;5.10;3.37;;;28.00;44.20;;;;;;5035644;28;20483;-73
2023/10/08 15:42:51;;;;;;;5.33;3.00;;;27.80;44.00;;;;;;5035721;28;20451;-73
2023/10/08 15:45:17;;;;;;;6.17;2.90;;;27.50;44.90;;;;;;5035624;28;20467;-74
2023/10/08 15:47:44;;;;;;;6.27;3.70;;;27.30;44.70;;;;;;5035550;28;20446;-74
2023/10/08 15:50:11;;;;;;;5.03;4.00;;;27.20;45.00;;;;;;5035537;28;20474;-73
2023/10/08 15:52:38;;;;;;;6.13;3.73;;;27.00;45.60;;;;;;5035531;28;20448;-73
2023/10/08 15:55:07;;;;;;;4.60;2.93;;;26.90;45.70;;;;;;5035088;28;20470;-73
2023/10/08 15:57:34;;;;;;;5.33;3.17;;;26.70;46.10;;;;;;5035424;28;20451;-73
2023/10/08 16:00:03;;;;;;;5.00;3.20;;;26.80;46.70;;;;;;5035259;28;20479;-74
2023/10/08 16:02:30;;;;;;;4.97;2.87;;;26.70;46.20;;;;;;5035659;28;20483;-74
2023/10/08 16:04:56;;;;;;;5.60;2.87;;;26.70;46.30;;;;;;5035216;28;20466;-74
2023/10/08 16:07:23;;;;;;;4.97;3.17;;;26.70;46.20;;;;;;5035230;28;20474;-73
2023/10/08 16:09:50;;;;;;;4.70;2.90;;;26.60;46.40;;;;;;5034845;28;20921;-74
2023/10/08 16:12:18;;;;;;;6.07;3.03;;;26.60;47.20;;;;;;5034805;28;20451;-74
2023/10/08 16:14:45;;;;;;;3.30;2.67;;;26.50;47.20;;;;;;5035289;28;20487;-73
2023/10/08 16:17:13;;;;;;;7.70;3.23;;;26.50;47.40;;;;;;5035070;28;20443;-73
2023/10/08 16:19:40;;;;;;;5.50;2.80;;;26.40;47.60;;;;;;5034686;28;21043;-74
2023/10/08 16:22:08;;;;;;;4.00;2.40;;;26.30;48.50;;;;;;5035042;28;20823;-73
2023/10/08 16:24:36;;;;;;;4.60;3.13;;;26.20;49.20;;;;;;5034881;28;20498;-73
2023/10/08 16:27:04;;;;;;;4.53;3.00;;;26.00;49.80;;;;;;5034942;28;20479;-74
2023/10/08 16:29:32;;;;;;;3.80;2.80;;;25.90;50.20;;;;;;5034977;28;20447;-74
2023/10/08 16:31:59;;;;;;;5.70;3.00;;;25.80;50.70;;;;;;5034840;28;20443;-73
2023/10/08 16:34:26;;;;;;;4.63;2.63;;;25.60;49.70;;;;;;5034584;28;20451;-73
2023/10/08 16:36:54;;;;;;;5.87;3.37;;;25.50;50.50;;;;;;5033211;28;20933;-73
2023/10/08 16:39:24;;;;;;;5.37;3.30;;;25.40;51.10;;;;;;5034941;28;20440;-73
2023/10/08 16:41:51;;;;;;;4.90;3.40;;;25.20;52.20;;;;;;5034478;28;20494;-73
2023/10/08 16:44:18;;;;;;;3.60;2.60;;;25.10;52.00;;;;;;5034499;28;20463;-73
2023/10/08 16:46:46;;;;;;;4.60;2.70;;;24.90;52.60;;;;;;5034476;28;20439;-73
2023/10/08 16:49:12;;;;;;;9.63;3.23;;;24.70;53.60;;;;;;5034511;28;20442;-73
2023/10/08 16:51:39;;;;;;;5.07;2.70;;;24.60;53.60;;;;;;5034123;28;20925;-73
2023/10/08 16:54:08;;;;;;;5.30;3.13;;;24.40;53.90;;;;;;5034655;28;20833;-73
2023/10/08 16:56:35;;;;;;;4.60;3.00;;;24.30;54.90;;;;;;5034436;28;20454;-73
2023/10/08 16:59:02;;;;;;;4.83;3.03;;;24.10;55.40;;;;;;5033956;28;20937;-73
2023/10/08 17:01:29;;;;;;;4.60;3.43;;;24.00;54.80;;;;;;5034166;28;20482;-73
2023/10/08 17:03:57;;;;;;;4.33;3.00;;;23.90;55.70;;;;;;5034171;28;20470;-73
2023/10/08 17:06:24;;;;;;;5.77;3.20;;;23.70;56.10;;;;;;5034176;28;20498;-73
2023/10/08 17:08:50;;;;;;;4.77;2.60;;;23.60;56.00;;;;;;5034099;28;20443;-73
2023/10/08 17:11:19;;;;;;;4.90;2.60;;;23.40;56.30;;;;;;5034118;28;20444;-73
2023/10/08 17:13:46;;;;;;;3.43;2.20;;;23.30;56.30;;;;;;5033806;28;20469;-73
2023/10/08 17:16:13;;;;;;;9.90;2.97;;;23.20;57.20;;;;;;5034045;28;20436;-73
2023/10/08 17:18:40;;;;;;;4.57;2.60;;;23.10;57.30;;;;;;5033928;28;20462;-73
2023/10/08 17:21:08;;;;;;;6.43;3.33;;;23.00;57.60;;;;;;5033554;28;21086;-73